WetterOnline ( https://www.wetteronline.de )

Wetter aktuell Uppsala

Aktuelles Wetter: Uppsala (21m)

6-stündlich | Neueste Meldungen
Ortszeit Temperatur Wetter
So, 23.02. 13:00 7.9° C leicht bewölkt
So, 23.02. 7:00 3.6° C wolkenlos
So, 23.02. 1:00 2.6° C wolkenlos
Sa, 22.02. 19:00 6.1° C wolkenlos
Sa, 22.02. 13:00 8.0° C bedeckt
Sa, 22.02. 7:00 5.9° C leichter Regen
Sa, 22.02. 1:00 6.6° C bedeckt
Fr, 21.02. 19:00 6.1° C leicht bewölkt
Ortszeit Temperatur Wetter
So, 23.02. 18:00 3.6° C leicht bewölkt
So, 23.02. 17:50 4° C bewölkt
So, 23.02. 17:20 5° C leicht bewölkt
So, 23.02. 17:00 5.2° C leicht bewölkt
So, 23.02. 16:50 6° C bewölkt
So, 23.02. 16:20 6° C leicht bewölkt
So, 23.02. 16:00 6.8° C wolkenlos
So, 23.02. 15:20 7° C -
So, 23.02. 15:00 7.4° C wolkenlos
Ortszeit Relative Feuchte Sichtweite
So, 23.02. 13:00 47% 45 km
So, 23.02. 7:00 77% 45 km
So, 23.02. 1:00 70% 50 km
Sa, 22.02. 19:00 61% 50 km
Sa, 22.02. 13:00 79% 50 km
Sa, 22.02. 7:00 95% 5.0 km
Sa, 22.02. 1:00 82% 50 km
Fr, 21.02. 19:00 67% 27 km
Ortszeit Relative Feuchte Sichtweite
So, 23.02. 18:00 57% 50 km
So, 23.02. 17:50 56% >10 km
So, 23.02. 17:20 52% >10 km
So, 23.02. 17:00 49% 50 km
So, 23.02. 16:50 49% >10 km
So, 23.02. 16:20 49% >10 km
So, 23.02. 16:00 45% 45 km
So, 23.02. 15:20 45% >10 km
So, 23.02. 15:00 44% 45 km
Ortszeit Niederschlagsmenge Niederschlagsart
So, 23.02. 13:00 0.0 l/m2 in 6 Std. -
So, 23.02. 7:00 0.0 l/m2 in 12 Std. -
So, 23.02. 1:00 0.0 l/m2 in 6 Std. -
Sa, 22.02. 19:00 1 l/m2 in 12 Std. Regenschauer
Sa, 22.02. 13:00 1 l/m2 in 6 Std. Regenschauer
Sa, 22.02. 7:00 0.4 l/m2 in 12 Std. Schauer
Sa, 22.02. 1:00 0.0 l/m2 in 6 Std. -
Fr, 21.02. 19:00 0.0 l/m2 in 12 Std. -
Ortszeit Niederschlagsmenge Niederschlagsart
So, 23.02. 18:00 0.0 l/m2 in 1 Std. -
So, 23.02. 17:50 keine Meldung -
So, 23.02. 17:20 keine Meldung -
So, 23.02. 17:00 0.0 l/m2 in 1 Std. -
So, 23.02. 16:50 keine Meldung -
So, 23.02. 16:20 keine Meldung -
So, 23.02. 16:00 0.0 l/m2 in 1 Std. -
So, 23.02. 15:20 keine Meldung -
So, 23.02. 15:00 0.0 l/m2 in 1 Std. -
Ortszeit Stärke Spitze Richtung
km/h Bft. km/h Grad Sektor
So, 23.02. 13:00 25 4 - 280° W
So, 23.02. 7:00 18 3 36 240° SW
So, 23.02. 1:00 29 5 - 250° W
Sa, 22.02. 19:00 32 5 - 270° W
Sa, 22.02. 13:00 40 6 - 220° SW
Sa, 22.02. 7:00 36 5 58 210° SW
Sa, 22.02. 1:00 32 5 - 230° SW
Fr, 21.02. 19:00 29 5 47 220° SW
Ortszeit Stärke Spitze Richtung
km/h Bft. km/h Grad Sektor
So, 23.02. 18:00 11 2 18 260° W
So, 23.02. 17:50 11 2 - 270° W
So, 23.02. 17:20 13 3 - 270° W
So, 23.02. 17:00 11 2 25 280° W
So, 23.02. 16:50 13 3 - 280° W
So, 23.02. 16:20 17 3 - 280° W
So, 23.02. 16:00 22 4 43 280° W
So, 23.02. 15:20 24 4 - 280° W
So, 23.02. 15:00 29 5 43 280° W
Ortszeit Untergrenze Bedeckung Gattung
total tief tief mittel hoch
So, 23.02. 13:00 3300 m 3/8 3/8 - - -
So, 23.02. 7:00 - 0/8 0/8 - - -
So, 23.02. 1:00 - 0/8 0/8 - - -
Sa, 22.02. 19:00 - 0/8 0/8 - - -
Sa, 22.02. 13:00 750 m 8/8 8/8 - - -
Sa, 22.02. 7:00 240 m 8/8 8/8 - - -
Sa, 22.02. 1:00 510 m 8/8 8/8 - - -
Fr, 21.02. 19:00 1170 m 4/8 4/8 - - -
Ortszeit Bedeckungsgrad in Achtel und Wolkenuntergrenze
So, 23.02. 18:00 3(1800m)
So, 23.02. 17:50 5-7(1800m)
So, 23.02. 17:20 1-2(1800m)
So, 23.02. 17:00 4(1800m)
So, 23.02. 16:50 5-7(1800m)
So, 23.02. 16:20 1-2(1800m)
So, 23.02. 16:00 keine Wolken
So, 23.02. 15:20 -
So, 23.02. 15:00 keine Wolken
Ortszeit Luftdruck NN (hPa) Tendenz (hPa in 3 Std.)
So, 23.02. 13:00 985 + 1,5
So, 23.02. 7:00 982 + 0,6
So, 23.02. 1:00 982 + 1,1
Sa, 22.02. 19:00 978 + 3,5
Sa, 22.02. 13:00 976 - 7,0
Sa, 22.02. 7:00 989 - 3,9
Sa, 22.02. 1:00 996 - 1,6
Fr, 21.02. 19:00 1000 - 0,3
Ortszeit Luftdruck NN (hPa) Tendenz (hPa in 3 Std.)
So, 23.02. 18:00 987 + 1,4
So, 23.02. 17:50 986 keine Meldung
So, 23.02. 17:20 986 keine Meldung
So, 23.02. 17:00 987 + 1,1
So, 23.02. 16:50 986 keine Meldung
So, 23.02. 16:20 985 keine Meldung
So, 23.02. 16:00 986 + 0,9
So, 23.02. 15:20 985 keine Meldung
So, 23.02. 15:00 986 + 1,1
Ortszeit Schneehöhe (cm)
So, 23.02. 13:00 -
So, 23.02. 7:00 -
So, 23.02. 1:00 -
Sa, 22.02. 19:00 -
Sa, 22.02. 13:00 -
Sa, 22.02. 7:00 -
Sa, 22.02. 1:00 -
Fr, 21.02. 19:00 -
Ortszeit Schneehöhe (cm)
So, 23.02. 18:00 -
So, 23.02. 17:50 -
So, 23.02. 17:20 -
So, 23.02. 17:00 -
So, 23.02. 16:50 -
So, 23.02. 16:20 -
So, 23.02. 16:00 -
So, 23.02. 15:20 -
So, 23.02. 15:00 -
Link zu dieser Seite / Seite empfehlen

Das Wetter in ...